createdAt,value
2022-10-14T00:00:45.099Z,11.89
2022-10-14T00:01:42.368Z,12.06
2022-10-14T00:02:39.158Z,11.68
2022-10-14T00:03:37.847Z,12.05
2022-10-14T00:04:34.448Z,11.88
2022-10-14T00:05:31.173Z,11.99
2022-10-14T00:06:30.425Z,12.09
2022-10-14T00:07:27.007Z,12.02
2022-10-14T00:08:25.188Z,11.93
2022-10-14T00:09:22.028Z,11.78
2022-10-14T00:10:20.801Z,11.75
2022-10-14T00:11:21.645Z,11.75
2022-10-14T00:12:18.243Z,11.61
2022-10-14T00:13:14.778Z,11.73
2022-10-14T00:14:15.659Z,11.82
2022-10-14T00:15:12.265Z,11.78
2022-10-14T00:16:20.696Z,11.74
2022-10-14T00:17:17.414Z,11.75
2022-10-14T00:18:14.258Z,11.69
2022-10-14T00:19:12.709Z,11.78
2022-10-14T00:20:09.697Z,11.63
2022-10-14T00:21:06.769Z,11.88
2022-10-14T00:22:03.486Z,11.85
2022-10-14T00:23:00.179Z,11.79
2022-10-14T00:23:57.798Z,11.83
2022-10-14T00:24:54.547Z,11.73
2022-10-14T00:25:51.456Z,11.51
2022-10-14T00:26:48.017Z,11.59
2022-10-14T00:27:44.647Z,11.71
2022-10-14T00:28:41.395Z,11.61
2022-10-14T00:29:38.727Z,11.72
2022-10-14T00:30:35.285Z,11.86
2022-10-14T00:31:32.879Z,11.58
2022-10-14T00:32:29.481Z,11.73
2022-10-14T00:33:27.001Z,11.66
2022-10-14T00:34:23.591Z,11.94
2022-10-14T00:35:20.151Z,11.67
2022-10-14T00:36:20.130Z,11.61
2022-10-14T00:37:16.751Z,11.66
2022-10-14T00:38:13.295Z,11.46
2022-10-14T00:39:10.499Z,11.47
2022-10-14T00:40:07.553Z,11.68
2022-10-14T00:41:04.840Z,11.51
2022-10-14T00:42:01.600Z,11.62
2022-10-14T00:42:58.171Z,11.25
2022-10-14T00:44:13.073Z,11.60
2022-10-14T00:45:14.283Z,11.57
2022-10-14T00:46:11.868Z,11.47
2022-10-14T00:47:08.688Z,11.55
2022-10-14T00:48:05.803Z,11.36
2022-10-14T00:49:15.521Z,11.58
2022-10-14T00:50:13.601Z,11.78
2022-10-14T00:51:10.683Z,11.60
2022-10-14T00:52:27.670Z,11.43
2022-10-14T00:53:24.448Z,11.66
2022-10-14T00:54:24.375Z,11.28
2022-10-14T00:55:21.052Z,11.81
2022-10-14T00:56:27.729Z,11.51
2022-10-14T00:57:25.859Z,11.38
2022-10-14T00:58:22.437Z,11.42
2022-10-14T00:59:19.405Z,11.45
2022-10-14T01:00:19.128Z,11.42
2022-10-14T01:01:15.802Z,11.33
2022-10-14T01:02:12.428Z,11.10
2022-10-14T01:03:19.873Z,11.33
2022-10-14T01:04:16.555Z,11.34
2022-10-14T01:05:15.149Z,11.35
2022-10-14T01:07:01.039Z,11.44
2022-10-14T01:08:11.024Z,11.26
2022-10-14T01:09:13.602Z,11.31
2022-10-14T01:10:13.057Z,11.51
2022-10-14T01:11:31.632Z,11.75
2022-10-14T01:12:40.601Z,11.54
2022-10-14T01:13:43.591Z,11.33
2022-10-14T01:14:52.530Z,11.33
2022-10-14T01:16:10.340Z,11.43
2022-10-14T01:17:18.524Z,11.42
2022-10-14T01:18:29.292Z,11.25
2022-10-14T01:19:59.639Z,11.37
2022-10-14T01:21:14.813Z,11.26
2022-10-14T01:22:27.451Z,11.42
2022-10-14T01:23:49.078Z,11.25
2022-10-14T01:25:19.884Z,11.06
2022-10-14T01:26:53.861Z,11.19
2022-10-14T01:28:21.713Z,11.36
2022-10-14T01:29:41.214Z,11.02
2022-10-14T01:30:50.362Z,11.26
2022-10-14T01:31:57.491Z,11.29
2022-10-14T01:33:09.877Z,11.28
2022-10-14T01:34:10.820Z,11.14
2022-10-14T01:35:23.047Z,11.03
2022-10-14T01:36:33.768Z,10.66
2022-10-14T01:37:33.023Z,10.92
2022-10-14T01:38:34.610Z,10.78
2022-10-14T01:39:37.949Z,10.88
2022-10-14T01:40:52.930Z,10.91
2022-10-14T01:42:02.825Z,10.83
2022-10-14T01:43:02.529Z,10.87
2022-10-14T01:44:04.333Z,10.93
2022-10-14T01:45:09.271Z,10.72
2022-10-14T01:46:08.221Z,10.67
2022-10-14T01:47:06.736Z,10.44
2022-10-14T01:48:06.407Z,10.63
2022-10-14T01:49:09.830Z,10.52
2022-10-14T01:50:15.226Z,10.61
2022-10-14T01:51:17.818Z,10.43
2022-10-14T01:52:20.062Z,10.48
2022-10-14T01:53:42.308Z,10.98
2022-10-14T01:54:42.898Z,10.94
2022-10-14T01:55:43.612Z,10.80
2022-10-14T01:56:43.382Z,10.98
2022-10-14T01:57:43.284Z,10.88
2022-10-14T01:58:41.199Z,11.00
2022-10-14T01:59:40.312Z,10.84
2022-10-14T02:00:38.229Z,10.90
2022-10-14T02:01:36.698Z,10.98
2022-10-14T02:02:37.251Z,11.04
2022-10-14T02:03:45.939Z,10.94
2022-10-14T02:04:42.622Z,11.13
2022-10-14T02:05:47.242Z,10.99
2022-10-14T02:06:54.819Z,10.90
2022-10-14T02:08:11.873Z,10.93
2022-10-14T02:09:35.340Z,10.61
2022-10-14T02:10:34.675Z,10.90
2022-10-14T02:11:37.915Z,10.98
2022-10-14T02:12:43.510Z,10.98
2022-10-14T02:14:15.162Z,10.40
2022-10-14T02:15:39.730Z,10.89
2022-10-14T02:16:48.976Z,10.83
2022-10-14T02:17:48.359Z,10.87
2022-10-14T02:19:30.249Z,11.02
2022-10-14T02:20:35.294Z,10.82
2022-10-14T02:21:40.048Z,10.73
2022-10-14T02:22:47.374Z,10.80
2022-10-14T02:23:53.467Z,10.88
2022-10-14T02:24:56.570Z,11.02
2022-10-14T02:25:54.908Z,11.01
2022-10-14T02:26:55.672Z,11.21
2022-10-14T02:27:54.440Z,11.01
2022-10-14T02:28:53.437Z,10.83
2022-10-14T02:29:52.263Z,10.98
2022-10-14T02:31:14.648Z,10.95
2022-10-14T02:32:15.239Z,11.05
2022-10-14T02:33:12.726Z,10.79
2022-10-14T02:34:13.680Z,10.87
2022-10-14T02:35:12.583Z,10.72
2022-10-14T02:36:12.605Z,10.74
2022-10-14T02:37:10.404Z,10.72
2022-10-14T02:38:08.627Z,10.70
2022-10-14T02:39:07.938Z,10.73
2022-10-14T02:40:11.897Z,10.73
2022-10-14T02:41:13.930Z,10.53
2022-10-14T02:42:10.622Z,10.44
2022-10-14T02:43:10.150Z,10.51
2022-10-14T02:44:06.870Z,10.54
2022-10-14T02:45:03.736Z,10.44
2022-10-14T02:46:03.222Z,10.37
2022-10-14T02:46:59.805Z,10.30
2022-10-14T02:47:56.413Z,10.32
2022-10-14T02:48:52.976Z,10.35
2022-10-14T02:49:49.717Z,10.45
2022-10-14T02:50:46.383Z,10.29
2022-10-14T02:51:42.950Z,10.37
2022-10-14T02:52:39.523Z,10.41
2022-10-14T02:53:36.101Z,10.21
2022-10-14T02:54:32.817Z,10.32
2022-10-14T02:55:29.801Z,10.33
2022-10-14T02:56:26.392Z,10.40
2022-10-14T02:57:22.984Z,10.36
2022-10-14T02:58:19.629Z,9.84
2022-10-14T02:59:16.216Z,10.37
2022-10-14T03:00:13.279Z,10.43
2022-10-14T03:01:09.927Z,10.47
2022-10-14T03:02:07.628Z,10.66
2022-10-14T03:03:04.334Z,10.74
2022-10-14T03:04:00.907Z,10.66
2022-10-14T03:04:58.197Z,10.73
2022-10-14T03:05:54.747Z,10.65
2022-10-14T03:06:51.347Z,10.47
2022-10-14T03:07:47.936Z,10.46
2022-10-14T03:08:44.529Z,10.54
2022-10-14T03:09:41.078Z,10.51
2022-10-14T03:10:37.635Z,10.73
2022-10-14T03:11:34.182Z,10.73
2022-10-14T03:12:30.738Z,10.60
2022-10-14T03:13:27.320Z,10.45
2022-10-14T03:14:24.112Z,10.32
2022-10-14T03:15:21.003Z,10.35
2022-10-14T03:16:17.587Z,10.47
2022-10-14T03:17:14.356Z,10.65
2022-10-14T03:18:10.980Z,10.74
2022-10-14T03:19:07.637Z,10.69
2022-10-14T03:20:07.739Z,10.38
2022-10-14T03:21:04.377Z,10.29
2022-10-14T03:22:01.239Z,10.30
2022-10-14T03:22:57.912Z,9.97
2022-10-14T03:23:54.548Z,10.07
2022-10-14T03:24:51.146Z,10.16
2022-10-14T03:25:47.824Z,10.04
2022-10-14T03:26:44.441Z,9.76
2022-10-14T03:27:41.112Z,9.93
2022-10-14T03:28:37.721Z,10.05
2022-10-14T03:29:34.329Z,9.99
2022-10-14T03:30:31.423Z,10.03
2022-10-14T03:31:28.024Z,10.04
2022-10-14T03:32:24.721Z,9.78
2022-10-14T03:33:24.543Z,9.47
2022-10-14T03:34:22.525Z,9.64
2022-10-14T03:35:19.265Z,9.78
2022-10-14T03:36:15.858Z,9.68
2022-10-14T03:37:12.486Z,9.60
2022-10-14T03:38:09.078Z,9.56
2022-10-14T03:39:05.652Z,9.53
2022-10-14T03:40:02.213Z,9.42
2022-10-14T03:40:58.787Z,9.39
2022-10-14T03:41:55.418Z,9.52
2022-10-14T03:42:51.978Z,9.83
2022-10-14T03:43:48.535Z,9.83
2022-10-14T03:44:46.269Z,9.87
2022-10-14T03:45:45.349Z,9.91
2022-10-14T03:46:41.944Z,9.99
2022-10-14T03:47:38.606Z,10.09
2022-10-14T03:48:35.201Z,10.11
2022-10-14T03:49:31.795Z,9.92
2022-10-14T03:50:28.638Z,9.87
2022-10-14T03:51:25.358Z,9.84
2022-10-14T03:52:22.441Z,9.98
2022-10-14T03:53:19.249Z,9.80
2022-10-14T03:54:15.989Z,9.82
2022-10-14T03:55:12.792Z,9.98
2022-10-14T03:56:09.362Z,10.21
2022-10-14T03:57:05.946Z,9.97
2022-10-14T03:58:02.513Z,10.01
2022-10-14T03:58:59.105Z,9.97
2022-10-14T03:59:55.699Z,9.83
2022-10-14T04:00:52.354Z,9.78
2022-10-14T04:01:49.055Z,9.83
2022-10-14T04:02:45.675Z,9.87
2022-10-14T04:03:42.320Z,9.98
2022-10-14T04:04:39.395Z,9.77
2022-10-14T04:05:36.296Z,9.76
2022-10-14T04:06:33.049Z,9.67
2022-10-14T04:07:29.666Z,9.91
2022-10-14T04:08:26.326Z,10.04
2022-10-14T04:09:22.950Z,9.96
2022-10-14T04:10:19.703Z,9.91
2022-10-14T04:11:17.308Z,10.02
2022-10-14T04:12:13.889Z,10.00
2022-10-14T04:13:10.886Z,9.84
2022-10-14T04:14:07.489Z,10.04
2022-10-14T04:15:04.391Z,9.97
2022-10-14T04:16:09.109Z,9.89
2022-10-14T04:17:05.711Z,9.93
2022-10-14T04:18:02.419Z,9.91
2022-10-14T04:18:59.097Z,9.96
2022-10-14T04:19:55.694Z,9.82
2022-10-14T04:20:52.332Z,9.81
2022-10-14T04:21:48.924Z,9.54
2022-10-14T04:22:46.013Z,9.35
2022-10-14T04:23:42.773Z,9.14
2022-10-14T04:24:39.397Z,9.58
2022-10-14T04:25:38.802Z,9.62
2022-10-14T04:26:35.509Z,9.28
2022-10-14T04:27:32.419Z,9.66
2022-10-14T04:28:29.088Z,9.62
2022-10-14T04:29:25.863Z,9.67
2022-10-14T04:30:22.593Z,9.29
2022-10-14T04:31:19.171Z,9.70
2022-10-14T04:32:15.867Z,9.57
2022-10-14T04:33:12.525Z,9.63
2022-10-14T04:34:10.359Z,9.51
2022-10-14T04:35:07.908Z,9.44
2022-10-14T04:36:06.376Z,9.50
2022-10-14T04:37:03.381Z,9.44
2022-10-14T04:38:00.025Z,9.67
2022-10-14T04:38:56.657Z,9.51
2022-10-14T04:39:53.236Z,9.50
2022-10-14T04:40:49.773Z,9.65
2022-10-14T04:41:46.367Z,9.78
2022-10-14T04:42:42.968Z,9.53
2022-10-14T04:43:39.555Z,9.70
2022-10-14T04:44:36.164Z,9.28
2022-10-14T04:45:32.728Z,9.61
2022-10-14T04:46:29.801Z,9.65
2022-10-14T04:47:26.388Z,9.57
2022-10-14T04:48:23.007Z,9.54
2022-10-14T04:49:19.639Z,9.54
2022-10-14T04:50:17.111Z,9.48
2022-10-14T04:51:13.986Z,9.56
2022-10-14T04:52:10.598Z,9.71
2022-10-14T04:53:13.089Z,9.74
2022-10-14T04:54:10.544Z,9.68
2022-10-14T04:55:07.546Z,9.75
2022-10-14T04:56:04.302Z,9.59
2022-10-14T04:57:01.127Z,9.46
2022-10-14T04:57:57.702Z,9.61
2022-10-14T04:58:54.340Z,9.68
2022-10-14T04:59:50.894Z,9.53
2022-10-14T05:00:47.475Z,9.78
2022-10-14T05:01:44.067Z,9.83
2022-10-14T05:02:40.712Z,9.56
2022-10-14T05:03:37.345Z,9.59
2022-10-14T05:04:33.900Z,9.56
2022-10-14T05:05:30.623Z,9.44
2022-10-14T05:06:27.590Z,9.62
2022-10-14T05:07:24.221Z,9.70
2022-10-14T05:08:20.967Z,9.72
2022-10-14T05:09:17.559Z,9.86
2022-10-14T05:10:14.271Z,9.90
2022-10-14T05:11:10.888Z,9.90
2022-10-14T05:12:07.537Z,9.93
2022-10-14T05:13:04.422Z,10.11
2022-10-14T05:14:01.076Z,10.26
2022-10-14T05:14:58.360Z,10.11
2022-10-14T05:15:55.149Z,10.11
2022-10-14T05:16:51.767Z,10.35
2022-10-14T05:17:48.425Z,10.18
2022-10-14T05:18:45.011Z,10.11
2022-10-14T05:19:41.588Z,10.25
2022-10-14T05:20:38.734Z,10.24
2022-10-14T05:21:35.701Z,10.28
2022-10-14T05:22:32.386Z,10.31
2022-10-14T05:23:28.968Z,10.33
2022-10-14T05:24:25.873Z,10.39
2022-10-14T05:25:22.477Z,10.39
2022-10-14T05:26:19.119Z,10.46
2022-10-14T05:27:15.771Z,10.47
2022-10-14T05:28:12.334Z,10.44
2022-10-14T05:29:10.803Z,10.27
2022-10-14T05:30:08.018Z,10.58
2022-10-14T05:31:05.377Z,10.42
2022-10-14T05:32:02.023Z,10.69
2022-10-14T05:32:58.831Z,10.69
2022-10-14T05:33:55.458Z,10.61
2022-10-14T05:34:52.098Z,10.72
2022-10-14T05:36:03.878Z,10.62
2022-10-14T05:37:00.500Z,10.64
2022-10-14T05:38:00.719Z,10.63
2022-10-14T05:39:00.660Z,10.69
2022-10-14T05:39:57.282Z,10.81
2022-10-14T05:40:57.872Z,11.02
2022-10-14T05:41:54.469Z,11.17
2022-10-14T05:42:51.033Z,11.09
2022-10-14T05:43:47.642Z,11.12
2022-10-14T05:44:44.205Z,11.09
2022-10-14T05:45:40.836Z,11.07
2022-10-14T05:46:37.655Z,11.09
2022-10-14T05:47:34.221Z,11.25
2022-10-14T05:48:32.231Z,11.14
2022-10-14T05:49:28.823Z,11.24
2022-10-14T05:50:25.775Z,11.25
2022-10-14T05:51:23.289Z,11.16
2022-10-14T05:52:20.243Z,11.09
2022-10-14T05:53:17.452Z,11.26
2022-10-14T05:54:14.254Z,10.96
2022-10-14T05:55:11.027Z,11.34
2022-10-14T05:56:09.842Z,11.53
2022-10-14T05:57:06.513Z,11.42
2022-10-14T05:58:04.028Z,11.52
2022-10-14T05:59:00.692Z,11.35
2022-10-14T05:59:57.377Z,11.25
2022-10-14T06:00:54.093Z,11.25
2022-10-14T06:01:51.171Z,11.45
2022-10-14T06:02:47.966Z,11.43
2022-10-14T06:03:44.733Z,11.50
2022-10-14T06:04:42.536Z,11.55
2022-10-14T06:05:39.254Z,11.43
2022-10-14T06:06:36.012Z,11.52
2022-10-14T06:07:36.341Z,11.63
2022-10-14T06:08:33.076Z,11.78
2022-10-14T06:09:31.321Z,11.73
2022-10-14T06:10:28.207Z,11.61
2022-10-14T06:11:24.935Z,11.75
2022-10-14T06:12:21.996Z,11.79
2022-10-14T06:13:19.161Z,12.08
2022-10-14T06:14:15.830Z,11.84
2022-10-14T06:15:12.596Z,11.87
2022-10-14T06:16:10.862Z,11.73
2022-10-14T06:17:08.135Z,11.78
2022-10-14T06:18:05.100Z,12.00
2022-10-14T06:19:02.052Z,11.89
2022-10-14T06:19:58.841Z,11.97
2022-10-14T06:20:55.835Z,11.85
2022-10-14T06:21:52.636Z,12.03
2022-10-14T06:22:49.349Z,12.32
2022-10-14T06:23:46.230Z,12.34
2022-10-14T06:24:42.990Z,12.33
2022-10-14T06:25:40.344Z,12.43
2022-10-14T06:26:37.295Z,12.54
2022-10-14T06:27:34.064Z,12.58
2022-10-14T06:28:30.961Z,12.73
2022-10-14T06:29:31.861Z,13.02
2022-10-14T06:30:28.734Z,13.06
2022-10-14T06:31:29.832Z,12.88
2022-10-14T06:32:28.842Z,12.93
2022-10-14T06:33:25.564Z,12.91
2022-10-14T06:34:24.448Z,12.70
2022-10-14T06:35:21.338Z,12.94
2022-10-14T06:36:18.233Z,13.12
2022-10-14T06:37:14.981Z,13.35
2022-10-14T06:38:11.688Z,13.49
2022-10-14T06:39:08.422Z,13.38
2022-10-14T06:40:05.723Z,13.27
2022-10-14T06:41:02.487Z,13.29
2022-10-14T06:41:59.347Z,13.37
2022-10-14T06:42:58.529Z,13.49
2022-10-14T06:43:55.318Z,13.46
2022-10-14T06:44:52.178Z,13.75
2022-10-14T06:45:49.300Z,13.58
2022-10-14T06:46:46.204Z,13.62
2022-10-14T06:47:43.381Z,13.83
2022-10-14T06:48:40.110Z,13.93
2022-10-14T06:49:36.787Z,13.73
2022-10-14T06:50:33.574Z,13.75
2022-10-14T06:51:30.289Z,13.64
2022-10-14T06:52:27.033Z,13.38
2022-10-14T06:53:23.906Z,13.50
2022-10-14T06:54:21.128Z,13.55
2022-10-14T06:55:20.098Z,13.48
2022-10-14T06:56:17.586Z,13.45
2022-10-14T06:57:14.327Z,13.29
2022-10-14T06:58:11.287Z,13.35
2022-10-14T06:59:08.753Z,13.08
2022-10-14T07:00:07.720Z,13.31
2022-10-14T07:01:06.003Z,13.32
2022-10-14T07:02:02.841Z,13.14
2022-10-14T07:03:00.058Z,13.27
2022-10-14T07:03:57.018Z,13.05
2022-10-14T07:04:53.868Z,13.49
2022-10-14T07:05:50.929Z,13.43
2022-10-14T07:06:47.914Z,13.31
2022-10-14T07:07:44.681Z,13.26
2022-10-14T07:08:42.150Z,13.20
2022-10-14T07:09:38.995Z,13.04
2022-10-14T07:10:35.850Z,13.51
2022-10-14T07:11:32.638Z,13.64
2022-10-14T07:12:29.441Z,13.55
2022-10-14T07:13:26.555Z,13.53
2022-10-14T07:14:23.369Z,13.28
2022-10-14T07:15:20.158Z,13.26
2022-10-14T07:16:16.939Z,13.07
2022-10-14T07:17:13.756Z,13.18
2022-10-14T07:18:10.472Z,12.98
2022-10-14T07:19:07.316Z,13.32
2022-10-14T07:20:04.400Z,13.38
2022-10-14T07:21:05.402Z,13.19
2022-10-14T07:22:02.237Z,13.60
2022-10-14T07:22:59.168Z,13.21
2022-10-14T07:23:56.062Z,13.52
2022-10-14T07:24:52.912Z,13.45
2022-10-14T07:25:49.669Z,13.16
2022-10-14T07:26:46.588Z,13.56
2022-10-14T07:27:43.931Z,13.67
2022-10-14T07:28:41.039Z,13.74
2022-10-14T07:29:38.079Z,13.77
2022-10-14T07:30:35.315Z,13.96
2022-10-14T07:31:32.440Z,14.27
2022-10-14T07:32:29.196Z,14.06
2022-10-14T07:33:25.999Z,13.94
2022-10-14T07:34:22.976Z,14.36
2022-10-14T07:35:20.302Z,14.51
2022-10-14T07:36:21.538Z,14.43
2022-10-14T07:37:19.792Z,14.76
2022-10-14T07:38:16.781Z,14.96
2022-10-14T07:39:13.653Z,14.40
2022-10-14T07:40:11.581Z,14.60
2022-10-14T07:41:18.714Z,14.84
2022-10-14T07:42:15.600Z,15.15
2022-10-14T07:43:12.446Z,14.94
2022-10-14T07:44:09.972Z,14.81
2022-10-14T07:45:07.864Z,15.47
2022-10-14T07:46:07.804Z,15.68
2022-10-14T07:47:06.702Z,15.78
2022-10-14T07:48:04.170Z,15.36
2022-10-14T07:49:11.710Z,15.46
2022-10-14T07:50:09.100Z,15.48
2022-10-14T07:51:09.743Z,15.39
2022-10-14T07:52:06.610Z,15.63
2022-10-14T07:53:03.823Z,15.83
2022-10-14T07:54:02.332Z,15.66
2022-10-14T07:54:59.182Z,14.99
2022-10-14T07:55:59.413Z,14.96
2022-10-14T07:56:58.019Z,14.94
2022-10-14T07:57:54.921Z,15.46
2022-10-14T07:58:52.598Z,15.68
2022-10-14T07:59:49.614Z,15.16
2022-10-14T08:00:46.733Z,15.08
2022-10-14T08:01:43.753Z,15.06
2022-10-14T08:02:40.869Z,15.25
2022-10-14T08:03:37.649Z,15.32
2022-10-14T08:04:34.469Z,15.28
2022-10-14T08:05:39.123Z,15.05
2022-10-14T08:06:38.002Z,15.52
2022-10-14T08:07:35.942Z,15.41
2022-10-14T08:08:33.649Z,15.35
2022-10-14T08:09:31.405Z,15.15
2022-10-14T08:10:32.364Z,14.87
2022-10-14T08:11:29.863Z,14.70
2022-10-14T08:12:26.723Z,14.90
2022-10-14T08:13:23.623Z,15.03
2022-10-14T08:14:20.468Z,14.90
2022-10-14T08:15:17.541Z,14.88
2022-10-14T08:16:17.655Z,15.11
2022-10-14T08:17:14.520Z,15.17
2022-10-14T08:18:12.093Z,14.90
2022-10-14T08:19:14.400Z,15.08
2022-10-14T08:20:13.255Z,14.97
2022-10-14T08:21:11.157Z,15.19
2022-10-14T08:22:07.997Z,15.45
2022-10-14T08:23:04.869Z,15.24
2022-10-14T08:24:01.991Z,15.23
2022-10-14T08:24:58.806Z,15.22
2022-10-14T08:25:55.617Z,15.23
2022-10-14T08:26:55.163Z,15.07
2022-10-14T08:27:54.154Z,14.89
2022-10-14T08:28:51.799Z,14.82
2022-10-14T08:29:48.680Z,15.20
2022-10-14T08:30:45.649Z,15.34
2022-10-14T08:31:42.489Z,15.14
2022-10-14T08:32:39.408Z,14.76
2022-10-14T08:33:36.251Z,14.81
2022-10-14T08:34:33.785Z,15.22
2022-10-14T08:35:30.586Z,15.41
2022-10-14T08:36:27.739Z,15.24
2022-10-14T08:37:24.661Z,15.31
2022-10-14T08:38:25.248Z,15.43
2022-10-14T08:39:25.145Z,15.46
2022-10-14T08:40:22.130Z,15.54
2022-10-14T08:41:43.746Z,15.47
2022-10-14T08:42:51.206Z,14.95
2022-10-14T08:44:11.809Z,15.75
2022-10-14T08:45:19.518Z,15.35
2022-10-14T08:46:33.763Z,14.99
2022-10-14T08:47:41.471Z,15.40
2022-10-14T08:48:39.105Z,15.53
2022-10-14T08:49:54.738Z,15.67
2022-10-14T08:50:57.339Z,16.14
2022-10-14T08:52:14.295Z,16.41
2022-10-14T08:53:16.552Z,16.63
2022-10-14T08:54:25.479Z,16.36
2022-10-14T08:55:51.695Z,16.39
2022-10-14T08:56:48.707Z,16.44
2022-10-14T08:57:52.898Z,16.83
2022-10-14T08:58:52.680Z,16.41
2022-10-14T08:59:49.558Z,16.37
2022-10-14T09:00:49.898Z,16.45
2022-10-14T09:02:25.658Z,16.18
2022-10-14T09:03:22.539Z,16.12
2022-10-14T09:04:20.194Z,16.31
2022-10-14T09:05:26.569Z,16.48
2022-10-14T09:06:32.020Z,15.93
2022-10-14T09:07:30.928Z,16.27
2022-10-14T09:08:42.193Z,16.63
2022-10-14T09:09:42.469Z,16.85
2022-10-14T09:10:42.481Z,16.84
2022-10-14T09:11:43.945Z,17.04
2022-10-14T09:12:47.884Z,16.54
2022-10-14T09:13:49.425Z,16.65
2022-10-14T09:14:49.313Z,16.83
2022-10-14T09:15:50.552Z,17.22
2022-10-14T09:16:54.178Z,17.23
2022-10-14T09:18:07.246Z,17.09
2022-10-14T09:19:12.314Z,16.97
2022-10-14T09:20:11.882Z,16.50
2022-10-14T09:21:51.778Z,16.53
2022-10-14T09:22:58.324Z,16.37
2022-10-14T09:24:14.705Z,17.11
2022-10-14T09:25:18.454Z,17.14
2022-10-14T09:26:20.194Z,17.08
2022-10-14T09:27:26.936Z,16.92
2022-10-14T09:28:32.724Z,16.96
2022-10-14T09:29:34.231Z,16.82
2022-10-14T09:30:39.079Z,16.82
2022-10-14T09:31:35.960Z,17.22
2022-10-14T09:33:05.652Z,17.23
2022-10-14T09:34:02.590Z,17.20
2022-10-14T09:35:02.764Z,17.18
2022-10-14T09:37:27.053Z,16.67
2022-10-14T09:38:28.757Z,17.22
2022-10-14T09:39:25.686Z,17.53
2022-10-14T09:40:31.111Z,17.35
2022-10-14T09:41:31.152Z,17.25
2022-10-14T09:42:44.692Z,16.83
2022-10-14T09:44:21.992Z,17.13
2022-10-14T09:45:22.763Z,17.39
2022-10-14T09:46:19.895Z,17.48
2022-10-14T09:47:19.184Z,17.37
2022-10-14T09:48:29.090Z,17.45
2022-10-14T09:49:39.104Z,16.90
2022-10-14T09:50:47.051Z,16.95
2022-10-14T09:51:44.079Z,17.01
2022-10-14T09:52:40.941Z,16.97
2022-10-14T09:53:47.145Z,17.36
2022-10-14T09:54:46.835Z,17.37
2022-10-14T09:55:54.363Z,17.41
2022-10-14T09:57:00.054Z,17.13
2022-10-14T09:58:04.253Z,17.16
2022-10-14T09:59:02.185Z,17.55
2022-10-14T10:00:01.254Z,17.65
2022-10-14T10:01:00.522Z,17.40
2022-10-14T10:02:01.301Z,17.50
2022-10-14T10:02:58.490Z,17.45
2022-10-14T10:04:00.095Z,17.12
2022-10-14T10:04:57.357Z,17.51
2022-10-14T10:06:12.134Z,17.36
2022-10-14T10:07:24.525Z,16.73
2022-10-14T10:08:21.938Z,16.66
2022-10-14T10:09:21.990Z,16.47
2022-10-14T10:10:24.730Z,16.47
2022-10-14T10:11:38.945Z,16.31
2022-10-14T10:12:36.156Z,16.03
2022-10-14T10:13:48.246Z,16.02
2022-10-14T10:14:56.789Z,15.51
2022-10-14T10:16:05.518Z,15.44
2022-10-14T10:17:08.141Z,15.86
2022-10-14T10:18:19.074Z,16.15
2022-10-14T10:19:25.130Z,16.16
2022-10-14T10:20:45.460Z,15.92
2022-10-14T10:21:42.371Z,15.84
2022-10-14T10:22:42.475Z,15.87
2022-10-14T10:23:50.672Z,15.74
2022-10-14T10:24:48.397Z,16.10
2022-10-14T10:25:45.224Z,15.67
2022-10-14T10:26:41.814Z,15.81
2022-10-14T10:27:45.931Z,15.84
2022-10-14T10:28:47.949Z,16.09
2022-10-14T10:29:44.659Z,16.33
2022-10-14T10:31:07.001Z,16.39
2022-10-14T10:32:09.884Z,16.55
2022-10-14T10:33:21.587Z,16.42
2022-10-14T10:34:37.782Z,16.31
2022-10-14T10:35:58.755Z,16.08
2022-10-14T10:37:26.297Z,16.58
2022-10-14T10:38:30.977Z,16.82
2022-10-14T10:40:08.798Z,16.37
2022-10-14T10:41:37.248Z,16.31
2022-10-14T10:42:43.390Z,16.41
2022-10-14T10:43:46.037Z,16.50
2022-10-14T10:45:00.259Z,16.49
2022-10-14T10:46:11.662Z,16.58
2022-10-14T10:47:36.043Z,16.62
2022-10-14T10:48:47.477Z,16.24
2022-10-14T10:49:47.310Z,16.35
2022-10-14T10:50:48.718Z,16.48
2022-10-14T10:52:28.458Z,16.53
2022-10-14T10:53:29.684Z,16.86
2022-10-14T10:55:01.904Z,16.70
2022-10-14T10:56:25.788Z,16.39
2022-10-14T10:57:48.670Z,16.77
2022-10-14T10:58:56.546Z,16.82
2022-10-14T11:00:17.146Z,16.30
2022-10-14T11:01:14.714Z,16.37
2022-10-14T11:02:38.240Z,16.53
2022-10-14T11:03:43.889Z,16.53
2022-10-14T11:04:43.258Z,16.48
2022-10-14T11:06:13.707Z,16.55
2022-10-14T11:07:47.076Z,17.20
2022-10-14T11:09:24.663Z,17.33
2022-10-14T11:10:50.028Z,17.12
2022-10-14T11:12:17.769Z,17.56
2022-10-14T11:13:38.118Z,17.60
2022-10-14T11:15:20.072Z,17.16
2022-10-14T11:16:16.841Z,17.34
2022-10-14T11:17:28.405Z,17.07
2022-10-14T11:18:28.119Z,16.72
2022-10-14T11:19:34.090Z,16.61
2022-10-14T11:20:42.117Z,16.45
2022-10-14T11:21:38.761Z,17.02
2022-10-14T11:22:47.069Z,17.57
2022-10-14T11:23:46.185Z,17.37
2022-10-14T11:25:22.842Z,17.52
2022-10-14T11:26:41.663Z,17.42
2022-10-14T11:27:57.799Z,17.55
2022-10-14T11:29:03.603Z,17.45
2022-10-14T11:30:18.740Z,17.46
2022-10-14T11:31:26.977Z,17.66
2022-10-14T11:32:57.488Z,17.11
2022-10-14T11:34:19.571Z,17.05
2022-10-14T11:36:44.378Z,17.11
2022-10-14T11:37:53.268Z,17.41
2022-10-14T11:39:04.737Z,17.53
2022-10-14T11:40:24.503Z,17.35
2022-10-14T11:41:46.084Z,17.67
2022-10-14T11:43:28.911Z,17.43
2022-10-14T11:44:36.614Z,17.66
2022-10-14T11:45:36.002Z,17.73
2022-10-14T11:46:45.912Z,17.50
2022-10-14T11:47:47.579Z,17.28
2022-10-14T11:48:55.860Z,17.20
2022-10-14T11:50:16.753Z,17.17
2022-10-14T11:51:22.405Z,17.15
2022-10-14T11:52:29.088Z,17.24
2022-10-14T11:53:58.610Z,17.62
2022-10-14T11:55:03.264Z,17.75
2022-10-14T11:56:09.603Z,17.34
2022-10-14T11:57:26.363Z,17.38
2022-10-14T11:58:26.763Z,16.98
2022-10-14T11:59:38.358Z,17.34
2022-10-14T12:00:56.147Z,16.79
2022-10-14T12:02:00.752Z,16.82
2022-10-14T12:03:25.924Z,17.06
2022-10-14T12:04:30.783Z,16.61
2022-10-14T12:06:02.259Z,16.43
2022-10-14T12:07:25.085Z,16.69
2022-10-14T12:08:53.367Z,16.79
2022-10-14T12:09:59.886Z,16.92
2022-10-14T12:11:24.336Z,16.81
2022-10-14T12:12:26.193Z,16.85
2022-10-14T12:13:33.170Z,16.84
2022-10-14T12:14:52.482Z,16.97
2022-10-14T12:15:52.392Z,16.72
2022-10-14T12:16:49.919Z,16.90
2022-10-14T12:18:00.565Z,16.92
2022-10-14T12:18:58.385Z,16.46
2022-10-14T12:19:57.680Z,16.48
2022-10-14T12:21:03.985Z,16.36
2022-10-14T12:22:40.898Z,16.69
2022-10-14T12:23:47.768Z,16.78
2022-10-14T12:24:55.974Z,16.96
2022-10-14T12:26:16.173Z,16.95
2022-10-14T12:27:17.607Z,16.88
2022-10-14T12:28:19.087Z,17.22
2022-10-14T12:29:22.740Z,16.57
2022-10-14T12:30:40.755Z,16.65
2022-10-14T12:31:40.624Z,16.64
2022-10-14T12:33:02.539Z,16.82
2022-10-14T12:34:15.927Z,16.82
2022-10-14T12:35:47.495Z,16.72
2022-10-14T12:36:50.776Z,16.67
2022-10-14T12:37:51.978Z,16.69
2022-10-14T12:39:17.596Z,16.42
2022-10-14T12:40:14.240Z,16.83
2022-10-14T12:41:55.771Z,16.94
2022-10-14T12:43:00.183Z,16.36
2022-10-14T12:44:04.758Z,16.23
2022-10-14T12:45:14.344Z,16.61
2022-10-14T12:46:14.982Z,17.06
2022-10-14T12:47:33.626Z,17.13
2022-10-14T12:48:33.932Z,16.88
2022-10-14T12:49:35.138Z,17.25
2022-10-14T12:50:37.657Z,17.79
2022-10-14T12:51:34.163Z,17.96
2022-10-14T12:52:37.471Z,17.97
2022-10-14T12:53:35.665Z,17.28
2022-10-14T12:54:34.420Z,17.48
2022-10-14T12:55:39.281Z,17.70
2022-10-14T12:56:58.854Z,17.57
2022-10-14T12:58:05.027Z,17.86
2022-10-14T12:59:05.662Z,17.66
2022-10-14T13:00:14.818Z,17.80
2022-10-14T13:01:16.834Z,18.10
2022-10-14T13:02:32.452Z,17.92
2022-10-14T13:03:34.310Z,18.12
2022-10-14T13:04:32.181Z,18.20
2022-10-14T13:05:43.729Z,17.77
2022-10-14T13:06:45.054Z,18.00
2022-10-14T13:07:43.882Z,18.11
2022-10-14T13:08:40.942Z,17.06
2022-10-14T13:09:37.649Z,17.70
2022-10-14T13:10:45.871Z,17.73
2022-10-14T13:12:04.487Z,17.36
2022-10-14T13:13:42.300Z,17.32
2022-10-14T13:14:59.314Z,17.21
2022-10-14T13:15:55.887Z,17.47
2022-10-14T13:16:52.442Z,17.28
2022-10-14T13:17:49.022Z,16.85
2022-10-14T13:18:45.621Z,16.96
2022-10-14T13:19:43.592Z,16.44
2022-10-14T13:20:46.164Z,16.34
2022-10-14T13:21:42.705Z,16.50
2022-10-14T13:22:40.158Z,16.09
2022-10-14T13:23:52.754Z,15.92
2022-10-14T13:24:49.411Z,15.79
2022-10-14T13:25:48.626Z,16.09
2022-10-14T13:26:54.334Z,16.28
2022-10-14T13:27:56.177Z,16.02
2022-10-14T13:29:17.637Z,16.27